Time;durP1;ratioP1;P1;durP2;ratioP2;P2;SDS_P1;SDS_P2;PMS_P1;PMS_P2;Temp;Humidity;BMP_temperature;BMP_pressure;BME280_temperature;BME280_humidity;BME280_pressure;Samples;Min_cycle;Max_cycle;Signal;HPM_P1;HPM_P2
2021/07/20 00:01:18;;;;;;;7.97;3.70;;;;;;;20.26;77.45;99082.92;1753400;80;21072;-56
2021/07/20 00:03:45;;;;;;;4.45;3.25;;;;;;;20.25;77.57;99088.89;1754626;80;20975;-56
2021/07/20 00:06:12;;;;;;;5.70;2.77;;;;;;;20.26;77.62;99084.28;1754550;80;21010;-56
2021/07/20 00:08:40;;;;;;;6.22;3.87;;;;;;;20.25;77.62;99080.69;1754473;80;21428;-56
2021/07/20 00:11:07;;;;;;;8.18;4.17;;;;;;;20.23;77.52;99070.44;1751892;80;20955;-56
2021/07/20 00:13:33;;;;;;;13.22;3.00;;;;;;;20.24;77.54;99072.67;1756075;80;21088;-56
2021/07/20 00:16:01;;;;;;;9.68;3.95;;;;;;;20.22;77.51;99069.22;1753235;80;21286;-56
2021/07/20 00:18:29;;;;;;;5.80;3.67;;;;;;;20.18;77.41;99081.45;1753721;80;20942;-56
2021/07/20 00:20:56;;;;;;;11.45;3.72;;;;;;;20.14;77.23;99083.64;1753111;80;20923;-56
2021/07/20 00:23:22;;;;;;;8.78;2.75;;;;;;;20.09;77.22;99081.84;1751650;80;21422;-56
2021/07/20 00:25:49;;;;;;;12.98;2.45;;;;;;;20.07;77.18;99072.97;1751488;80;21161;-56
2021/07/20 00:28:17;;;;;;;5.35;2.62;;;;;;;20.05;77.22;99076.34;1752114;80;21053;-56
2021/07/20 00:30:44;;;;;;;8.20;2.00;;;;;;;20.03;77.15;99079.72;1755213;80;20913;-56
2021/07/20 00:33:11;;;;;;;14.05;2.35;;;;;;;20.01;77.06;99082.59;1755319;80;21132;-56
2021/07/20 00:35:37;;;;;;;8.53;2.60;;;;;;;20.01;77.07;99096.76;1750307;80;21675;-56
2021/07/20 00:38:04;;;;;;;7.72;2.37;;;;;;;19.99;77.11;99094.67;1750455;80;21128;-56
2021/07/20 00:40:31;;;;;;;6.92;2.70;;;;;;;19.97;77.26;99094.85;1753250;80;21112;-56
2021/07/20 00:43:00;;;;;;;6.28;2.72;;;;;;;19.97;77.30;99089.39;1749420;80;21081;-56
2021/07/20 00:45:27;;;;;;;5.10;3.15;;;;;;;19.96;77.16;99090.39;1747686;79;21305;-56
2021/07/20 00:47:53;;;;;;;9.00;3.42;;;;;;;19.96;77.17;99079.97;1747851;80;21030;-56
2021/07/20 00:50:25;;;;;;;7.37;3.72;;;;;;;19.95;77.18;99086.44;1698328;82;22149;-56
2021/07/20 00:52:52;;;;;;;7.20;3.75;;;;;;;19.92;77.10;99087.59;1743702;80;22156;-56
2021/07/20 00:56:26;;;;;;;11.73;3.08;;;;;;;19.94;77.09;99080.62;1774305;78;28975;-54
2021/07/20 00:58:55;;;;;;;8.75;3.60;;;;;;;19.87;77.05;99074.90;1741011;80;21690;-54
2021/07/20 01:01:21;;;;;;;6.10;2.85;;;;;;;19.87;77.00;99079.50;1741221;80;21855;-54
2021/07/20 01:03:50;;;;;;;6.55;2.87;;;;;;;19.86;77.01;99080.50;1738908;80;21130;-54
2021/07/20 01:06:19;;;;;;;8.73;2.60;;;;;;;19.85;77.00;99067.35;1717590;80;21147;-54
2021/07/20 01:08:48;;;;;;;5.62;3.62;;;;;;;19.86;77.06;99073.67;1736089;80;21085;-54
2021/07/20 01:11:19;;;;;;;7.47;4.12;;;;;;;19.85;76.97;99071.45;1698914;81;21040;-53
2021/07/20 01:13:46;;;;;;;13.32;5.33;;;;;;;19.84;76.91;99066.98;1700080;81;21566;-53
2021/07/20 01:16:14;;;;;;;7.47;4.12;;;;;;;19.83;77.03;99068.50;1645889;83;21518;-53
2021/07/20 01:18:41;;;;;;;7.70;4.53;;;;;;;19.81;77.09;99074.64;1704169;81;20972;-54
2021/07/20 01:21:09;;;;;;;8.45;4.80;;;;;;;19.78;76.91;99078.52;1703514;81;21432;-52
2021/07/20 01:23:37;;;;;;;9.13;3.80;;;;;;;19.77;76.84;99078.16;1697877;81;21072;-52
2021/07/20 01:26:04;;;;;;;7.92;3.22;;;;;;;19.75;76.83;99069.25;1701796;81;21142;-53
2021/07/20 01:28:33;;;;;;;9.63;4.05;;;;;;;19.74;76.99;99066.66;1702076;81;21234;-52
2021/07/20 01:31:07;;;;;;;9.15;3.95;;;;;;;19.71;77.05;99073.30;1694117;82;21096;-53
2021/07/20 01:33:34;;;;;;;8.78;4.00;;;;;;;19.69;77.08;99064.89;1704010;81;21515;-53
2021/07/20 01:36:05;;;;;;;7.12;3.15;;;;;;;19.69;77.25;99074.45;1701262;81;21060;-54
2021/07/20 01:38:33;;;;;;;5.97;3.50;;;;;;;19.69;77.43;99082.13;1682026;81;21433;-54
2021/07/20 01:41:06;;;;;;;5.67;3.35;;;;;;;19.71;77.43;99084.72;1698776;81;21775;-54
2021/07/20 01:43:38;;;;;;;8.33;4.37;;;;;;;19.70;77.39;99087.95;1672826;83;21022;-54
2021/07/20 01:46:05;;;;;;;5.08;4.67;;;;;;;19.71;77.38;99089.68;1676360;83;21673;-54
2021/07/20 01:48:35;;;;;;;7.00;5.58;;;;;;;19.72;77.35;99083.22;1675483;83;21503;-54
2021/07/20 01:51:04;;;;;;;13.32;5.95;;;;;;;19.71;77.37;99081.49;1678331;83;21770;-54
2021/07/20 01:53:31;;;;;;;12.20;5.55;;;;;;;19.71;77.41;99085.59;1674274;83;21345;-54
2021/07/20 01:56:05;;;;;;;6.45;3.60;;;;;;;19.71;77.39;99087.45;1672073;83;20982;-54
2021/07/20 01:58:33;;;;;;;14.23;4.87;;;;;;;19.69;77.34;99084.00;1675464;83;21076;-54
2021/07/20 02:01:01;;;;;;;5.83;3.52;;;;;;;19.67;77.41;99080.05;1649457;83;21997;-53
2021/07/20 02:03:56;;;;;;;6.05;3.02;;;;;;;19.65;77.50;99073.36;1672329;83;21902;-53
2021/07/20 02:08:54;;;;;;;4.15;3.55;;;;;;;19.63;77.91;99073.18;1639762;83;21144;-55
2021/07/20 02:11:26;;;;;;;7.95;5.53;;;;;;;19.63;77.91;99075.91;1672146;83;21515;-55
2021/07/20 02:14:00;;;;;;;6.10;4.35;;;;;;;19.65;77.84;99082.92;1646975;83;21515;-56
2021/07/20 02:16:44;;;;;;;6.87;4.17;;;;;;;19.65;77.88;99077.96;1650851;84;21508;-56
2021/07/20 02:19:28;;;;;;;15.15;5.35;;;;;;;19.65;77.96;99075.23;1657813;83;21425;-55
2021/07/20 02:22:00;;;;;;;10.75;5.60;;;;;;;19.65;77.81;99076.59;1655534;84;21487;-55
2021/07/20 02:24:33;;;;;;;9.90;4.25;;;;;;;19.64;77.81;99066.71;1660563;84;21050;-56
2021/07/20 02:27:02;;;;;;;15.45;4.72;;;;;;;19.63;77.83;99071.31;1656453;84;20971;-56
2021/07/20 02:29:30;;;;;;;10.15;3.87;;;;;;;19.62;77.74;99070.95;1640003;84;21745;-55
2021/07/20 02:32:00;;;;;;;5.72;3.50;;;;;;;19.62;77.61;99076.91;1655407;84;21394;-55
2021/07/20 02:34:28;;;;;;;5.35;4.42;;;;;;;19.60;77.74;99075.69;1640286;84;20994;-56
2021/07/20 02:36:56;;;;;;;10.28;3.25;;;;;;;19.59;77.93;99078.05;1675149;83;21404;-56
2021/07/20 02:39:24;;;;;;;10.60;4.12;;;;;;;19.60;77.98;99074.83;1678542;83;20907;-56
2021/07/20 02:41:53;;;;;;;11.97;3.98;;;;;;;19.61;78.03;99067.86;1679676;83;21688;-55
2021/07/20 02:44:20;;;;;;;7.95;4.55;;;;;;;19.61;78.12;99074.69;1682229;83;21419;-56
2021/07/20 02:46:47;;;;;;;14.10;5.20;;;;;;;19.62;78.25;99083.73;1675590;83;21934;-56
2021/07/20 02:49:14;;;;;;;11.50;4.35;;;;;;;19.62;78.34;99079.14;1660502;84;21520;-55
2021/07/20 02:51:40;;;;;;;7.22;4.47;;;;;;;19.62;78.37;99085.97;1656338;84;20963;-56
2021/07/20 02:54:07;;;;;;;10.95;4.67;;;;;;;19.63;78.45;99085.46;1659914;84;21160;-55
2021/07/20 02:56:36;;;;;;;7.92;4.65;;;;;;;19.63;78.54;99087.69;1636016;84;21462;-56
2021/07/20 02:59:05;;;;;;;4.15;3.45;;;;;;;19.64;78.64;99088.55;1639798;84;20974;-55
2021/07/20 03:01:36;;;;;;;15.63;4.78;;;;;;;19.65;78.85;99089.74;1663234;84;21449;-55
2021/07/20 03:04:04;;;;;;;5.53;3.55;;;;;;;19.69;78.86;99095.78;1664459;84;21365;-56
2021/07/20 03:06:31;;;;;;;12.03;4.45;;;;;;;19.72;78.83;99091.91;1662739;84;21468;-56
2021/07/20 03:09:00;;;;;;;10.63;4.15;;;;;;;19.74;78.78;99098.06;1665499;84;21394;-55
2021/07/20 03:11:43;;;;;;;7.97;4.83;;;;;;;19.75;78.79;99092.95;1663493;84;20931;-56
2021/07/20 03:14:12;;;;;;;8.43;6.03;;;;;;;19.74;78.89;99093.46;1708582;81;20923;-56
2021/07/20 03:16:41;;;;;;;6.05;5.47;;;;;;;19.76;78.95;99094.19;1707139;81;20900;-56
2021/07/20 03:19:08;;;;;;;7.37;5.25;;;;;;;19.79;79.33;99091.67;1666741;82;21807;-55
2021/07/20 03:21:35;;;;;;;6.92;5.22;;;;;;;19.81;79.25;99086.93;1690460;82;21492;-56
2021/07/20 03:24:03;;;;;;;5.25;4.62;;;;;;;19.83;79.30;99092.58;1706190;81;21444;-55
2021/07/20 03:26:30;;;;;;;6.45;5.92;;;;;;;19.86;79.44;99092.80;1706102;81;21520;-55
2021/07/20 03:28:58;;;;;;;6.60;5.97;;;;;;;19.89;79.77;99098.83;1708815;81;21050;-55
2021/07/20 03:31:26;;;;;;;14.47;5.72;;;;;;;19.95;80.02;99107.79;1689759;81;21544;-55
2021/07/20 03:33:54;;;;;;;7.17;6.60;;;;;;;20.01;80.23;99103.59;1663669;83;21559;-55
2021/07/20 03:36:26;;;;;;;8.60;7.70;;;;;;;20.09;80.37;99105.57;1664682;83;21057;-55
2021/07/20 03:38:53;;;;;;;9.38;8.50;;;;;;;20.15;80.71;99101.76;1705867;81;21566;-55
2021/07/20 03:41:21;;;;;;;8.18;7.35;;;;;;;20.22;81.06;99105.61;1704930;81;21182;-55
2021/07/20 03:43:48;;;;;;;9.53;7.65;;;;;;;20.30;81.31;99099.38;1703872;81;21495;-55
2021/07/20 03:46:15;;;;;;;10.25;8.83;;;;;;;20.38;81.54;99094.91;1688058;81;21128;-55
2021/07/20 03:48:42;;;;;;;8.10;7.30;;;;;;;20.46;81.72;99095.52;1707670;81;21555;-55
2021/07/20 03:51:17;;;;;;;;;;;;;;;20.56;81.81;99096.33;1710141;81;20939;-55
2021/07/20 03:53:43;;;;;;;10.18;6.30;;;;;;;20.65;81.81;99095.92;1709283;81;20129;-55
2021/07/20 03:56:10;;;;;;;8.60;6.65;;;;;;;20.70;81.90;99100.41;1663738;83;21105;-55
2021/07/20 03:58:39;;;;;;;9.03;8.18;;;;;;;20.77;81.84;99096.03;1693360;82;21070;-55
2021/07/20 04:01:05;;;;;;;8.30;7.60;;;;;;;20.83;81.85;99098.17;1700225;82;21070;-55
2021/07/20 04:03:33;;;;;;;9.00;7.85;;;;;;;20.92;81.94;99108.70;1698055;82;21121;-53
2021/07/20 04:06:08;;;;;;;7.42;6.53;;;;;;;20.99;82.13;99107.92;1651836;83;20930;-53
2021/07/20 04:08:38;;;;;;;10.78;7.85;;;;;;;21.08;82.23;99100.66;1658388;84;21929;-54
2021/07/20 04:11:05;;;;;;;11.35;8.15;;;;;;;21.15;82.30;99102.61;1697284;82;22535;-54
2021/07/20 04:13:35;;;;;;;8.65;6.28;;;;;;;21.25;82.25;99108.03;1696777;82;21073;-54
2021/07/20 04:16:15;;;;;;;8.60;7.80;;;;;;;21.33;82.03;99115.45;1632418;82;21086;-54
2021/07/20 04:18:42;;;;;;;7.75;6.58;;;;;;;21.41;81.70;99118.27;1661896;84;21053;-53
2021/07/20 04:21:10;;;;;;;7.72;7.12;;;;;;;21.47;81.38;99120.36;1659540;84;21140;-55
2021/07/20 04:23:37;;;;;;;8.15;6.60;;;;;;;21.54;81.12;99117.33;1703332;82;21065;-55
2021/07/20 04:26:08;;;;;;;5.42;4.92;;;;;;;21.58;80.92;99113.28;1697215;82;21054;-56
2021/07/20 04:28:36;;;;;;;5.60;5.15;;;;;;;21.65;80.66;99118.97;1699787;82;21228;-56
2021/07/20 04:31:03;;;;;;;5.62;5.12;;;;;;;21.72;80.35;99120.91;1694852;82;21086;-56
2021/07/20 04:33:32;;;;;;;5.20;4.80;;;;;;;21.80;79.95;99118.22;1699473;82;21858;-56
2021/07/20 04:36:02;;;;;;;6.75;5.03;;;;;;;21.87;79.77;99111.08;1661511;82;21066;-56
2021/07/20 04:38:35;;;;;;;6.03;5.53;;;;;;;21.96;79.37;99107.02;1704362;82;21015;-56
2021/07/20 04:41:03;;;;;;;5.87;5.37;;;;;;;22.00;78.93;99107.09;1703572;82;26645;-56
2021/07/20 04:43:30;;;;;;;7.28;5.33;;;;;;;22.06;78.57;99099.59;1705035;82;21121;-56
2021/07/20 04:45:57;;;;;;;7.15;6.33;;;;;;;22.13;78.11;99096.53;1704384;82;21149;-56
2021/07/20 04:48:24;;;;;;;7.08;6.50;;;;;;;22.18;77.73;99098.30;1664157;83;21038;-56
2021/07/20 04:50:55;;;;;;;7.80;7.00;;;;;;;22.23;77.42;99099.52;1662816;84;21165;-56
2021/07/20 04:53:21;;;;;;;6.20;5.72;;;;;;;22.28;77.44;99099.04;1634186;84;21371;-56
2021/07/20 04:55:52;;;;;;;6.75;6.15;;;;;;;22.33;77.49;99097.16;1667745;84;21059;-56
2021/07/20 04:58:18;;;;;;;6.40;5.80;;;;;;;22.38;77.17;99103.00;1671395;83;21994;-56
2021/07/20 05:00:51;;;;;;;6.05;5.75;;;;;;;22.41;76.65;99103.54;1669912;83;21676;-56
2021/07/20 05:03:19;;;;;;;6.10;5.60;;;;;;;22.44;76.21;99099.11;1668902;83;21041;-56
2021/07/20 05:05:46;;;;;;;6.60;5.15;;;;;;;22.51;76.02;99102.91;1673092;83;21125;-56
2021/07/20 05:08:17;;;;;;;5.97;5.58;;;;;;;22.57;76.01;99106.34;1672871;83;21332;-56
2021/07/20 05:10:51;;;;;;;5.50;5.10;;;;;;;22.63;75.86;99111.67;1673889;83;21478;-56
2021/07/20 05:13:20;;;;;;;5.85;5.30;;;;;;;22.70;75.56;99114.12;1670501;83;21736;-56
2021/07/20 05:15:55;;;;;;;8.65;6.30;;;;;;;22.77;75.57;99102.00;1670981;83;21038;-55
2021/07/20 05:18:22;;;;;;;6.90;6.17;;;;;;;22.85;75.42;99106.13;1670515;83;20963;-57
2021/07/20 05:20:53;;;;;;;9.93;7.72;;;;;;;22.93;75.26;99105.64;1650087;83;21172;-56
2021/07/20 05:23:19;;;;;;;8.45;7.58;;;;;;;23.02;75.00;99109.27;1647357;85;21468;-56
2021/07/20 05:25:53;;;;;;;8.30;6.62;;;;;;;23.08;74.86;99112.70;1705799;82;21411;-56
2021/07/20 05:28:24;;;;;;;10.68;7.50;;;;;;;23.15;74.61;99113.73;1694509;82;21007;-56
2021/07/20 05:30:56;;;;;;;6.15;5.67;;;;;;;23.21;74.55;99114.45;1676710;82;21450;-56
2021/07/20 05:33:22;;;;;;;7.97;5.78;;;;;;;23.29;74.82;99112.23;1704815;82;20946;-56
2021/07/20 05:36:01;;;;;;;9.33;5.97;;;;;;;23.35;74.34;99120.63;1703721;82;21081;-56
2021/07/20 05:38:28;;;;;;;8.98;6.92;;;;;;;23.44;74.21;99120.64;1705699;82;21373;-57
2021/07/20 05:41:13;;;;;;;9.75;8.80;;;;;;;23.52;74.19;99124.80;1705836;82;21292;-57
2021/07/20 05:43:40;;;;;;;8.63;7.83;;;;;;;23.62;73.77;99124.11;1705036;82;20910;-58
2021/07/20 05:46:07;;;;;;;8.60;7.85;;;;;;;23.69;73.67;99119.13;1648064;84;20970;-57
2021/07/20 05:48:34;;;;;;;10.55;9.78;;;;;;;23.74;73.44;99114.47;1667230;83;21097;-56
2021/07/20 05:51:04;;;;;;;8.40;6.80;;;;;;;23.78;73.01;99117.23;1607551;83;21598;-56
2021/07/20 05:53:37;;;;;;;9.13;8.33;;;;;;;23.80;73.18;99114.31;1654062;84;21055;-57
2021/07/20 05:56:06;;;;;;;10.30;9.38;;;;;;;23.83;73.25;99112.06;1603949;84;21094;-56
2021/07/20 05:58:33;;;;;;;9.58;8.65;;;;;;;23.87;72.71;99115.34;1677243;83;20946;-56
2021/07/20 06:01:04;;;;;;;9.63;8.83;;;;;;;23.90;72.77;99115.86;1709265;81;21908;-56
2021/07/20 06:03:32;;;;;;;8.15;7.40;;;;;;;23.96;72.71;99113.78;1712429;81;21264;-57
2021/07/20 06:05:59;;;;;;;10.95;8.15;;;;;;;24.03;72.63;99107.92;1694317;82;21417;-57
2021/07/20 06:08:27;;;;;;;9.60;8.88;;;;;;;24.06;72.69;99100.70;1709472;82;21914;-57
2021/07/20 06:11:03;;;;;;;9.65;8.90;;;;;;;24.14;72.73;99102.06;1711804;82;20981;-57
2021/07/20 06:13:38;;;;;;;10.80;9.35;;;;;;;24.21;72.76;99102.23;1709561;81;21772;-56
2021/07/20 06:16:06;;;;;;;12.47;11.22;;;;;;;24.26;72.40;99098.43;1706376;81;21089;-56
2021/07/20 06:18:32;;;;;;;11.83;10.03;;;;;;;24.31;72.19;99093.27;1709659;81;21034;-56
2021/07/20 06:21:02;;;;;;;10.20;9.30;;;;;;;24.36;72.19;99094.10;1685569;81;21066;-57
2021/07/20 06:23:33;;;;;;;11.25;10.28;;;;;;;24.42;71.99;99087.88;1710951;81;20974;-57
2021/07/20 06:26:00;;;;;;;11.43;10.35;;;;;;;24.46;71.62;99088.73;1707498;81;21798;-56
2021/07/20 06:28:26;;;;;;;10.82;9.98;;;;;;;24.48;71.32;99085.81;1705625;81;21492;-56
2021/07/20 06:30:52;;;;;;;9.88;9.03;;;;;;;24.53;71.15;99086.64;1707921;81;21059;-56
2021/07/20 06:33:20;;;;;;;10.05;9.35;;;;;;;24.55;71.04;99089.56;1705896;81;21682;-56
2021/07/20 06:35:46;;;;;;;12.30;11.18;;;;;;;24.62;71.24;99090.56;1689130;81;21077;-57
2021/07/20 06:38:17;;;;;;;15.18;9.58;;;;;;;24.69;70.73;99099.80;1706693;81;21161;-56
2021/07/20 06:40:45;;;;;;;9.18;8.38;;;;;;;24.73;70.76;99096.19;1670870;83;20985;-56
2021/07/20 06:43:14;;;;;;;10.55;9.75;;;;;;;24.79;70.80;99096.31;1707823;81;21100;-56
2021/07/20 06:45:43;;;;;;;13.13;10.58;;;;;;;24.84;70.26;99099.89;1708479;81;20958;-56
2021/07/20 06:48:14;;;;;;;10.20;9.25;;;;;;;24.90;69.95;99100.57;1711154;81;21074;-56
2021/07/20 06:50:42;;;;;;;11.18;10.13;;;;;;;24.97;69.95;99100.73;1707646;81;21531;-56
2021/07/20 06:53:11;;;;;;;11.83;9.90;;;;;;;25.05;69.78;99104.28;1704743;81;21466;-56
2021/07/20 06:55:38;;;;;;;10.32;9.25;;;;;;;25.13;69.13;99113.02;1708359;81;21103;-56
2021/07/20 06:58:06;;;;;;;11.68;9.25;;;;;;;25.17;69.34;99109.73;1712365;81;20981;-56
2021/07/20 07:00:32;;;;;;;9.78;8.83;;;;;;;25.25;69.08;99107.44;1717456;81;20910;-55
2021/07/20 07:03:00;;;;;;;7.87;7.30;;;;;;;25.33;68.54;99104.63;1712746;81;22105;-57
2021/07/20 07:05:28;;;;;;;8.95;7.87;;;;;;;25.41;68.30;99105.94;1670525;83;21155;-56
2021/07/20 07:07:55;;;;;;;9.90;9.23;;;;;;;25.51;68.60;99118.95;1671488;83;21557;-58
2021/07/20 07:10:22;;;;;;;10.93;10.03;;;;;;;25.64;67.99;99112.83;1671562;83;21657;-57
2021/07/20 07:12:49;;;;;;;12.50;9.95;;;;;;;25.73;66.48;99108.96;1674169;83;21053;-57
2021/07/20 07:15:17;;;;;;;10.23;9.35;;;;;;;25.79;66.29;99106.83;1673118;83;21671;-56
2021/07/20 07:17:46;;;;;;;12.30;11.20;;;;;;;25.82;66.36;99098.72;1673219;83;21650;-57
2021/07/20 07:20:16;;;;;;;9.83;9.08;;;;;;;25.86;66.48;99102.28;1656795;84;21152;-56
2021/07/20 07:22:43;;;;;;;8.08;7.37;;;;;;;25.90;66.06;99107.77;1660872;84;20939;-56
2021/07/20 07:25:10;;;;;;;8.43;7.53;;;;;;;25.93;65.54;99103.27;1679767;83;21575;-56
2021/07/20 07:27:39;;;;;;;9.18;8.38;;;;;;;25.98;65.78;99098.55;1658242;84;21831;-57
2021/07/20 07:30:08;;;;;;;8.08;7.28;;;;;;;26.03;65.52;99094.70;1661524;84;21541;-56
2021/07/20 07:32:34;;;;;;;9.28;8.45;;;;;;;26.10;65.61;99087.93;1660927;84;21111;-56
2021/07/20 07:35:00;;;;;;;12.33;8.30;;;;;;;26.15;65.45;99082.69;1639234;84;21031;-56
2021/07/20 07:37:28;;;;;;;10.98;8.60;;;;;;;26.22;65.00;99083.12;1656013;84;21574;-56
2021/07/20 07:39:55;;;;;;;8.40;7.58;;;;;;;26.26;64.85;99088.64;1663219;84;21786;-55
2021/07/20 07:42:22;;;;;;;8.43;7.42;;;;;;;26.30;64.34;99087.71;1662056;84;20995;-57
2021/07/20 07:44:49;;;;;;;6.35;5.67;;;;;;;26.32;63.88;99088.39;1677177;83;21076;-57
2021/07/20 07:47:16;;;;;;;8.05;6.42;;;;;;;26.30;62.61;99083.58;1677616;83;21085;-57
2021/07/20 07:49:43;;;;;;;6.80;6.10;;;;;;;26.29;62.79;99087.37;1678650;83;21118;-56
2021/07/20 07:52:12;;;;;;;6.50;5.90;;;;;;;26.28;62.78;99087.08;1671145;83;21171;-56
2021/07/20 07:54:40;;;;;;;5.87;5.20;;;;;;;26.31;62.72;99082.53;1669667;83;21149;-56
2021/07/20 07:57:06;;;;;;;5.33;4.85;;;;;;;26.31;62.60;99083.91;1675898;83;21371;-56
2021/07/20 07:59:33;;;;;;;6.70;5.17;;;;;;;26.31;61.43;99082.02;1709323;82;20966;-57
2021/07/20 08:01:59;;;;;;;6.08;5.58;;;;;;;26.33;60.20;99084.59;1672708;83;20993;-56
2021/07/20 08:04:26;;;;;;;5.12;4.80;;;;;;;26.35;59.55;99083.36;1676216;83;21363;-56
2021/07/20 08:06:55;;;;;;;7.72;7.03;;;;;;;26.38;59.60;99083.48;1707640;81;21439;-57
2021/07/20 08:09:21;;;;;;;8.25;7.60;;;;;;;26.42;60.21;99084.83;1709529;81;20894;-57
2021/07/20 08:11:48;;;;;;;9.05;5.47;;;;;;;26.46;60.24;99088.89;1706602;81;21069;-57
2021/07/20 08:14:14;;;;;;;6.00;4.75;;;;;;;26.48;60.67;99086.81;1705700;81;20888;-57
2021/07/20 08:16:44;;;;;;;4.85;4.35;;;;;;;26.54;58.83;99085.20;1709068;81;21817;-56
2021/07/20 08:19:11;;;;;;;6.28;4.47;;;;;;;26.58;57.51;99088.76;1711341;81;20932;-57
2021/07/20 08:21:38;;;;;;;6.70;4.55;;;;;;;26.64;56.93;99085.22;1708921;81;20935;-57
2021/07/20 08:24:05;;;;;;;7.12;6.47;;;;;;;26.71;57.33;99081.19;1672173;83;21491;-57
2021/07/20 08:26:35;;;;;;;5.17;4.67;;;;;;;26.81;58.33;99080.33;1669757;83;20941;-57
2021/07/20 08:29:05;;;;;;;7.78;6.87;;;;;;;26.88;58.41;99080.44;1676714;83;21062;-57
2021/07/20 08:31:37;;;;;;;7.28;6.58;;;;;;;26.93;58.20;99083.49;1708432;81;20962;-57
2021/07/20 08:34:04;;;;;;;7.30;6.62;;;;;;;26.95;58.29;99078.11;1708037;81;20978;-58
2021/07/20 08:36:33;;;;;;;6.03;5.47;;;;;;;27.01;58.46;99080.09;1707567;81;20996;-58
2021/07/20 08:38:59;;;;;;;5.85;5.22;;;;;;;27.00;58.68;99083.89;1692808;81;21429;-57
2021/07/20 08:42:01;;;;;;;5.80;5.40;;;;;;;26.99;58.33;99081.32;1673035;83;21100;-57
2021/07/20 08:45:04;;;;;;;5.75;5.15;;;;;;;27.01;58.00;99084.23;1671794;83;20978;-57
2021/07/20 08:48:03;;;;;;;9.83;6.33;;;;;;;27.07;58.15;99075.15;1662211;84;21409;-58
2021/07/20 08:50:42;;;;;;;7.03;5.58;;;;;;;27.19;57.26;99069.98;1667411;83;20953;-58
2021/07/20 08:53:30;;;;;;;6.85;5.40;;;;;;;27.32;57.02;99070.09;1671815;83;21128;-58
2021/07/20 08:55:57;;;;;;;10.38;6.42;;;;;;;27.44;57.48;99067.67;1707591;81;21138;-57
2021/07/20 08:58:30;;;;;;;5.50;5.12;;;;;;;27.54;57.80;99070.14;1635699;83;22018;-58
2021/07/20 09:01:12;;;;;;;7.20;6.20;;;;;;;27.61;57.28;99073.81;1678295;83;20975;-57
2021/07/20 09:03:50;;;;;;;6.87;5.45;;;;;;;27.64;56.20;99066.52;1681415;83;21112;-57
2021/07/20 09:06:38;;;;;;;5.03;4.72;;;;;;;27.65;55.72;99066.29;1656887;84;21071;-57
2021/07/20 09:09:27;;;;;;;6.03;5.53;;;;;;;27.69;55.78;99071.76;1658206;84;21659;-57
2021/07/20 09:12:05;;;;;;;6.85;6.37;;;;;;;27.75;55.65;99069.57;1660032;84;21477;-58
2021/07/20 09:14:51;;;;;;;7.30;6.58;;;;;;;27.79;55.74;99068.66;1675524;83;21112;-57
2021/07/20 09:17:31;;;;;;;8.58;5.53;;;;;;;27.79;55.70;99068.66;1677341;83;21082;-57
2021/07/20 09:20:20;;;;;;;7.08;6.37;;;;;;;27.75;55.81;99062.66;1654219;84;21454;-58
2021/07/20 09:22:55;;;;;;;7.12;6.50;;;;;;;27.74;56.11;99060.94;1675674;83;21140;-58
2021/07/20 09:25:41;;;;;;;7.12;6.60;;;;;;;27.71;55.53;99055.84;1652268;84;21528;-57
2021/07/20 09:28:19;;;;;;;7.72;6.08;;;;;;;27.71;55.27;99052.21;1672666;83;21072;-58
2021/07/20 09:30:48;;;;;;;4.80;4.35;;;;;;;27.74;55.58;99047.12;1677257;83;21649;-57
2021/07/20 09:33:35;;;;;;;6.75;4.55;;;;;;;27.79;54.85;99048.77;1677165;83;20925;-58
2021/07/20 09:36:24;;;;;;;5.03;4.72;;;;;;;27.85;54.65;99050.72;1678061;83;21469;-58
2021/07/20 09:39:27;;;;;;;5.35;4.95;;;;;;;27.95;55.41;99042.60;1671143;83;21085;-57
2021/07/20 09:42:04;;;;;;;6.40;5.30;;;;;;;27.97;53.60;99041.35;1674958;83;21085;-57
2021/07/20 09:45:00;;;;;;;5.45;5.03;;;;;;;27.96;52.72;99040.16;1657846;83;21575;-57
2021/07/20 09:48:01;;;;;;;5.42;4.47;;;;;;;27.93;53.07;99035.03;1673937;83;21211;-57
2021/07/20 09:50:35;;;;;;;7.72;4.97;;;;;;;27.94;53.34;99042.27;1674233;83;21860;-58
2021/07/20 09:53:48;;;;;;;4.50;3.98;;;;;;;27.91;53.57;99042.66;1658989;83;21093;-56
2021/07/20 09:56:42;;;;;;;5.45;4.95;;;;;;;27.86;53.39;99038.61;1674758;83;21144;-56
2021/07/20 09:59:50;;;;;;;4.05;3.75;;;;;;;27.80;53.44;99039.95;1648597;83;21079;-56
2021/07/20 10:02:56;;;;;;;4.33;3.72;;;;;;;27.75;53.10;99033.63;1672614;83;21866;-56
2021/07/20 10:05:26;;;;;;;7.78;4.78;;;;;;;27.68;53.71;99033.25;1673336;83;22205;-56
2021/07/20 10:08:03;;;;;;;5.12;4.00;;;;;;;27.63;53.81;99026.95;1675135;83;21060;-56
2021/07/20 10:11:11;;;;;;;6.08;4.45;;;;;;;27.62;54.08;99029.39;1654357;83;21072;-56
2021/07/20 10:13:59;;;;;;;5.12;3.65;;;;;;;27.64;53.76;99025.05;1673249;83;21512;-56
2021/07/20 10:16:49;;;;;;;6.60;4.40;;;;;;;27.64;53.86;99023.66;1673482;83;21093;-56
2021/07/20 10:19:42;;;;;;;5.45;3.85;;;;;;;27.64;53.24;99019.52;1671987;83;21131;-56
2021/07/20 10:22:12;;;;;;;3.40;3.15;;;;;;;27.66;53.55;99014.09;1670537;83;21081;-56
2021/07/20 10:24:43;;;;;;;5.67;4.80;;;;;;;27.71;53.42;99011.59;1674081;83;21575;-56
2021/07/20 10:27:19;;;;;;;5.15;4.47;;;;;;;27.73;52.49;99012.78;1677830;83;20962;-56
2021/07/20 10:30:06;;;;;;;4.25;3.77;;;;;;;27.77;53.12;99008.02;1680650;83;20984;-56
2021/07/20 10:33:04;;;;;;;4.72;4.28;;;;;;;27.82;52.63;99012.40;1660230;84;21974;-57
2021/07/20 10:35:44;;;;;;;4.00;3.30;;;;;;;27.85;52.13;99012.01;1678171;83;21049;-56
2021/07/20 10:38:18;;;;;;;5.72;5.05;;;;;;;27.89;51.73;99004.17;1658802;83;21072;-56
2021/07/20 10:40:44;;;;;;;;;;;;;;;27.91;52.23;99004.80;1673576;83;21403;-57
2021/07/20 10:43:29;;;;;;;5.87;5.28;;;;;;;27.92;52.92;99000.98;1677974;83;20718;-56
2021/07/20 10:45:55;;;;;;;4.95;4.58;;;;;;;27.91;52.51;99008.09;1654783;84;21843;-56
2021/07/20 10:48:28;;;;;;;4.67;4.35;;;;;;;27.91;52.86;99006.71;1638801;84;22058;-56
2021/07/20 10:50:58;;;;;;;4.60;4.22;;;;;;;27.90;52.72;99009.17;1657785;84;21130;-56
2021/07/20 10:53:53;;;;;;;5.20;3.25;;;;;;;27.89;53.44;99008.32;1641600;84;21110;-56
2021/07/20 10:56:37;;;;;;;4.85;4.28;;;;;;;27.87;52.81;99006.28;1654457;84;21771;-56
2021/07/20 10:59:26;;;;;;;4.87;4.35;;;;;;;27.88;52.48;99005.75;1653768;84;21290;-56
2021/07/20 11:02:13;;;;;;;10.85;3.95;;;;;;;27.88;52.57;99001.08;1707270;82;20920;-56
2021/07/20 11:04:58;;;;;;;4.75;3.25;;;;;;;27.93;52.56;99010.99;1710266;82;20919;-56
2021/07/20 11:07:50;;;;;;;6.12;4.08;;;;;;;27.99;52.22;99014.84;1693856;82;21397;-57
2021/07/20 11:10:27;;;;;;;4.87;3.55;;;;;;;28.06;51.37;99017.16;1685049;82;20881;-56
2021/07/20 11:13:05;;;;;;;3.55;3.25;;;;;;;28.14;51.44;99011.45;1653604;83;21555;-56
2021/07/20 11:15:32;;;;;;;3.90;3.17;;;;;;;28.21;50.99;99006.84;1662587;83;21376;-57
2021/07/20 11:18:02;;;;;;;5.53;3.72;;;;;;;28.28;51.11;99006.86;1664293;83;21492;-57
2021/07/20 11:20:28;;;;;;;6.92;4.45;;;;;;;28.36;50.32;99003.39;1699882;82;20976;-57
2021/07/20 11:22:55;;;;;;;5.70;3.98;;;;;;;28.40;50.12;98998.31;1700581;82;20887;-57
2021/07/20 11:25:21;;;;;;;7.22;4.53;;;;;;;28.44;50.28;98991.29;1699580;82;21109;-57
2021/07/20 11:27:47;;;;;;;6.95;3.62;;;;;;;28.46;49.88;98991.41;1700849;82;20905;-57
2021/07/20 11:30:16;;;;;;;9.68;4.83;;;;;;;28.46;49.83;98987.27;1711824;82;21360;-57
2021/07/20 11:32:47;;;;;;;8.58;4.28;;;;;;;28.45;50.61;98984.70;1707444;82;21665;-57
2021/07/20 11:35:16;;;;;;;7.50;4.33;;;;;;;28.43;50.40;98981.27;1705068;81;20955;-56
2021/07/20 11:37:54;;;;;;;6.67;4.47;;;;;;;28.38;50.71;98985.20;1707319;82;21769;-57
2021/07/20 11:40:27;;;;;;;6.55;4.42;;;;;;;28.36;50.27;98976.25;1700828;82;21327;-55
2021/07/20 11:43:00;;;;;;;5.72;4.10;;;;;;;28.33;50.20;98973.35;1687112;82;21149;-56
2021/07/20 11:45:39;;;;;;;4.15;3.83;;;;;;;28.31;50.36;98966.34;1663446;83;21093;-58
2021/07/20 11:48:08;;;;;;;5.83;5.03;;;;;;;28.28;50.78;98959.81;1668999;84;21051;-56
2021/07/20 11:50:42;;;;;;;6.97;4.92;;;;;;;28.25;51.66;98958.31;1665008;82;21131;-57
2021/07/20 11:53:21;;;;;;;;;;;;;;;28.24;51.46;98957.45;1706511;81;21256;-57
2021/07/20 11:55:57;;;;;;;7.72;4.35;;;;;;;28.24;51.70;98956.07;1700426;82;20220;-57
2021/07/20 11:58:55;;;;;;;5.40;4.45;;;;;;;28.22;51.80;98949.91;1702372;82;21572;-57